Chickasha, OK

1:23 PM CST on February 23, 2018 (GMT -0600)
Chickasha Municipal

Weather History for KCHK - January, 2013

Change the Weather History Date:

Tuesday, January 1, 2013

  Actual Average Record
Temperature  
Mean Temperature 32 °F -  
Max Temperature 35 °F 47 °F 75 °F (2006)
Min Temperature 30 °F 24 °F 0 °F (1959)
Degree Days  
Heating Degree Days 32    
Moisture  
Dew Point 29 °F    
Average Humidity 92    
Maximum Humidity 100    
Minimum Humidity 86    
Precipitation  
Precipitation 0.00 in - - ()
Sea Level Pressure  
Sea Level Pressure 30.22 in    
Wind  
Wind Speed 13 mph (NNE)    
Max Wind Speed 22 mph    
Max Gust Speed 26 mph    
Visibility 10 miles    
Events      
Averages and records for this station are not official NWS values.
T = Trace of Precipitation, MM = Missing Value Source: NWS Daily Summary

Daily Weather History Graph

Daily Weather History Graph

Search for Another Location

Airport or City:

Trip Planner

Search our weather history database for the weather conditions in past years. The results will help you decide how hot, cold, wet, or windy it might be!

Date:

Astronomy

Jan. 01, 2013 Rise Set
Actual Time 7:40 AM CST 5:31 PM CST
Civil Twilight 7:12 AM CST 5:59 PM CST
Nautical Twilight 6:40 AM CST 6:30 PM CST
Astronomical Twilight 6:09 AM CST 7:01 PM CST
Moon 9:52 PM CST (1/1) 10:02 AM CST (1/1)
Length of Visible Light 10h 47m
Length of Day
9h 51m
Waning Gibbous, 83% of the Moon is Illuminated
Jan 1
Waning Gibbous
Jan 4
Last Quarter
Jan 11
New
Jan 18
First Quarter
Jan 26
Full

Hourly Weather History & Observations

Time (CST) Temp. Windchill Dew Point Humidity Pressure Visibility Wind Dir Wind Speed Gust Speed Precip Events Conditions
12:15 AM 35.6 °F 26.2 °F 35.6 °F 100% 30.08 in 10.0 mi North 15.0 mph - N/A   Overcast
12:35 AM 33.8 °F 22.5 °F 33.8 °F 100% 30.07 in 10.0 mi North 19.6 mph - N/A   Overcast
12:55 AM 33.8 °F 21.9 °F 32.0 °F 93% 30.06 in 10.0 mi North 21.9 mph 26.5 mph N/A   Overcast
1:15 AM 33.8 °F 22.8 °F 32.0 °F 93% 30.07 in 10.0 mi North 18.4 mph - N/A   Overcast
1:35 AM 33.8 °F 25.8 °F 32.0 °F 93% 30.08 in 10.0 mi North 10.4 mph 18.4 mph N/A   Overcast
2:15 AM 33.8 °F 24.8 °F 32.0 °F 93% 30.12 in 10.0 mi North 12.7 mph - N/A   Overcast
2:35 AM 32.0 °F 21.6 °F 32.0 °F 100% 30.12 in 10.0 mi North 15.0 mph - N/A   Overcast
2:55 AM 32.0 °F 22.1 °F 32.0 °F 100% 30.12 in 10.0 mi North 13.8 mph - N/A   Overcast
3:15 AM 32.0 °F 23.6 °F 32.0 °F 100% 30.14 in 10.0 mi North 10.4 mph - N/A   Overcast
3:35 AM 32.0 °F 22.1 °F 32.0 °F 100% 30.14 in 10.0 mi North 13.8 mph - N/A   Overcast
3:55 AM 32.0 °F 23.0 °F 32.0 °F 100% 30.14 in 10.0 mi North 11.5 mph - N/A   Overcast
4:15 AM 32.0 °F 22.5 °F 32.0 °F 100% 30.15 in 10.0 mi NNE 12.7 mph - N/A   Overcast
4:35 AM 32.0 °F 22.5 °F 32.0 °F 100% 30.15 in 10.0 mi NNE 12.7 mph - N/A   Overcast
4:55 AM 32.0 °F 22.5 °F 30.2 °F 93% 30.16 in 10.0 mi NNE 12.7 mph - N/A   Overcast
5:15 AM 30.2 °F 19.8 °F 30.2 °F 100% 30.16 in 10.0 mi North 13.8 mph - N/A   Overcast
5:35 AM 30.2 °F 20.2 °F 30.2 °F 100% 30.19 in 10.0 mi NNE 12.7 mph - N/A   Overcast
5:55 AM 30.2 °F 20.2 °F 30.2 °F 100% 30.17 in 10.0 mi North 12.7 mph - N/A   Overcast
6:15 AM 30.2 °F 19.8 °F 30.2 °F 100% 30.17 in 10.0 mi North 13.8 mph - N/A   Overcast
6:35 AM 30.2 °F 20.2 °F 28.4 °F 93% 30.16 in 10.0 mi North 12.7 mph - N/A   Overcast
6:55 AM 30.2 °F 19.8 °F 28.4 °F 93% 30.18 in 10.0 mi NNE 13.8 mph - N/A   Overcast
7:15 AM 30.2 °F 20.8 °F 28.4 °F 93% 30.19 in 7.0 mi North 11.5 mph - N/A   Overcast
7:35 AM 30.2 °F 20.2 °F 28.4 °F 93% 30.21 in 10.0 mi NNE 12.7 mph - N/A   Overcast
7:55 AM 30.2 °F 19.8 °F 28.4 °F 93% 30.21 in 10.0 mi North 13.8 mph - N/A   Overcast
8:15 AM 30.2 °F 19.8 °F 28.4 °F 93% 30.22 in 10.0 mi North 13.8 mph - N/A   Overcast
8:35 AM 30.2 °F 19.8 °F 28.4 °F 93% 30.22 in 10.0 mi North 13.8 mph - N/A   Overcast
9:15 AM 30.2 °F 20.8 °F 28.4 °F 93% 30.24 in 10.0 mi North 11.5 mph - N/A   Overcast
9:35 AM 30.2 °F 20.8 °F 28.4 °F 93% 30.25 in 10.0 mi North 11.5 mph - N/A   Overcast
9:55 AM 30.2 °F 20.2 °F 28.4 °F 93% 30.26 in 10.0 mi North 12.7 mph - N/A   Overcast
10:15 AM 30.2 °F 19.8 °F 28.4 °F 93% 30.26 in 10.0 mi North 13.8 mph - N/A   Overcast
10:35 AM 30.2 °F 19.8 °F 28.4 °F 93% 30.27 in 10.0 mi North 13.8 mph - N/A   Overcast
11:15 AM 30.2 °F 19.8 °F 28.4 °F 93% 30.28 in 10.0 mi NNE 13.8 mph - N/A   Overcast
11:35 AM 30.2 °F 19.8 °F 28.4 °F 93% 30.28 in 10.0 mi NNE 13.8 mph - N/A   Overcast
12:15 PM 30.2 °F 19.8 °F 28.4 °F 93% 30.28 in 10.0 mi NNE 13.8 mph - N/A   Overcast
12:35 PM 30.2 °F 18.9 °F 28.4 °F 93% 30.27 in 10.0 mi North 16.1 mph - N/A   Overcast
12:55 PM 30.2 °F 18.9 °F 28.4 °F 93% 30.26 in 10.0 mi North 16.1 mph - N/A   Overcast
1:15 PM 30.2 °F 19.3 °F 28.4 °F 93% 30.25 in 10.0 mi North 15.0 mph - N/A   Overcast
1:35 PM 30.2 °F 19.8 °F 28.4 °F 93% 30.25 in 10.0 mi NNE 13.8 mph 18.4 mph N/A   Overcast
2:15 PM 30.2 °F 19.8 °F 28.4 °F 93% 30.24 in 10.0 mi North 13.8 mph - N/A   Overcast
2:35 PM 30.2 °F 19.3 °F 28.4 °F 93% 30.24 in 10.0 mi North 15.0 mph - N/A   Overcast
2:55 PM 30.2 °F 19.8 °F 28.4 °F 93% 30.24 in 10.0 mi North 13.8 mph - N/A   Overcast
3:15 PM 30.2 °F 18.9 °F 26.6 °F 86% 30.24 in 10.0 mi North 16.1 mph - N/A   Overcast
3:35 PM 30.2 °F 19.8 °F 26.6 °F 86% 30.25 in 10.0 mi North 13.8 mph - N/A   Overcast
4:15 PM 30.2 °F 20.8 °F 26.6 °F 86% 30.26 in 10.0 mi North 11.5 mph - N/A   Overcast
4:35 PM 30.2 °F 21.3 °F 26.6 °F 86% 30.26 in 10.0 mi North 10.4 mph - N/A   Overcast
5:15 PM 30.2 °F 21.3 °F 26.6 °F 86% 30.26 in 10.0 mi North 10.4 mph - N/A   Overcast
5:35 PM 30.2 °F 21.9 °F 26.6 °F 86% 30.25 in 10.0 mi North 9.2 mph - N/A   Overcast
5:55 PM 30.2 °F 21.9 °F 26.6 °F 86% 30.26 in 10.0 mi North 9.2 mph - N/A   Overcast
6:15 PM 30.2 °F 22.6 °F 26.6 °F 86% 30.28 in 10.0 mi North 8.1 mph - N/A   Overcast
6:35 PM 30.2 °F 21.9 °F 26.6 °F 86% 30.28 in 10.0 mi North 9.2 mph - N/A   Overcast
6:55 PM 30.2 °F 21.3 °F 26.6 °F 86% 30.28 in 10.0 mi North 10.4 mph - N/A   Overcast
7:15 PM 30.2 °F 21.3 °F 26.6 °F 86% 30.28 in 10.0 mi North 10.4 mph - N/A   Overcast
7:35 PM 30.2 °F 21.3 °F 26.6 °F 86% 30.28 in 10.0 mi North 10.4 mph - N/A   Overcast
7:55 PM 30.2 °F 21.3 °F 26.6 °F 86% 30.28 in 10.0 mi North 10.4 mph - N/A   Overcast
8:15 PM 30.2 °F 22.6 °F 26.6 °F 86% 30.29 in 10.0 mi NNE 8.1 mph - N/A   Overcast
8:35 PM 30.2 °F 21.3 °F 26.6 °F 86% 30.28 in 10.0 mi NNE 10.4 mph - N/A   Overcast
8:55 PM 30.2 °F 20.8 °F 26.6 °F 86% 30.28 in 10.0 mi NNE 11.5 mph - N/A   Overcast
9:15 PM 30.2 °F 21.3 °F 26.6 °F 86% 30.29 in 10.0 mi NNE 10.4 mph - N/A   Overcast
9:35 PM 30.2 °F 20.8 °F 26.6 °F 86% 30.28 in 10.0 mi North 11.5 mph - N/A   Overcast
9:55 PM 30.2 °F 21.9 °F 26.6 °F 86% 30.29 in 10.0 mi NNE 9.2 mph - N/A   Overcast
10:15 PM 30.2 °F 21.9 °F 26.6 °F 86% 30.29 in 10.0 mi NNE 9.2 mph - N/A   Overcast
10:35 PM 30.2 °F 24.3 °F 26.6 °F 86% 30.29 in 10.0 mi NNE 5.8 mph - N/A   Overcast
10:55 PM 30.2 °F 25.4 °F 26.6 °F 86% 30.29 in 10.0 mi NE 4.6 mph - N/A   Overcast
11:15 PM 30.2 °F 24.3 °F 26.6 °F 86% 30.29 in 10.0 mi NE 5.8 mph - N/A   Overcast
11:35 PM 30.2 °F 25.4 °F 26.6 °F 86% 30.30 in 10.0 mi NE 4.6 mph - N/A   Overcast
11:55 PM 30.2 °F 24.3 °F 26.6 °F 86% 30.30 in 10.0 mi NE 5.8 mph - N/A   Overcast